Time;durP1;ratioP1;P1;durP2;ratioP2;P2;SDS_P1;SDS_P2;PMS_P1;PMS_P2;Temp;Humidity;BMP_temperature;BMP_pressure;BME280_temperature;BME280_humidity;BME280_pressure;Samples;Min_cycle;Max_cycle;Signal;HPM_P1;HPM_P2
2023/07/02 11:19:28;;;;;;;;;;;13.00;73.30;;;;;;6303727;22;20049;-67
2023/07/02 11:21:58;;;;;;;;;;;13.00;73.20;;;;;;6306834;22;19917;-68
2023/07/02 11:24:34;;;;;;;;;;;13.00;73.30;;;;;;6306969;22;19903;-67
2023/07/02 11:27:02;;;;;;;;;;;13.00;73.30;;;;;;6307168;22;19903;-68
2023/07/02 11:29:29;;;;;;;;;;;13.00;73.30;;;;;;6307048;22;19903;-68
2023/07/02 11:32:16;;;;;;;;;;;13.00;73.30;;;;;;6307306;22;19915;-68
2023/07/02 11:34:43;;;;;;;;;;;13.10;73.20;;;;;;6306203;22;19986;-68
2023/07/02 11:37:09;;;;;;;;;;;13.10;73.20;;;;;;6279403;22;19910;-68
2023/07/02 11:39:36;;;;;;;;;;;13.10;73.30;;;;;;6307010;22;20332;-68
2023/07/02 11:42:03;;;;;;;;;;;13.10;73.30;;;;;;6306423;22;20238;-67
2023/07/02 11:44:30;;;;;;;;;;;13.20;73.20;;;;;;6305730;22;19907;-68
2023/07/02 11:46:57;;;;;;;;;;;13.10;73.50;;;;;;6306621;22;19907;-67
2023/07/02 11:49:23;;;;;;;;;;;13.10;73.60;;;;;;6306570;22;19903;-67
2023/07/02 11:51:50;;;;;;;;;;;13.10;73.80;;;;;;6306413;22;20338;-67
2023/07/02 11:54:18;;;;;;;;;;;13.10;74.00;;;;;;6305343;22;19903;-68
2023/07/02 11:56:45;;;;;;;;;;;13.00;74.20;;;;;;6306114;22;19903;-68
2023/07/02 11:59:11;;;;;;;;;;;13.00;74.20;;;;;;6306721;22;19903;-67
2023/07/02 12:01:38;;;;;;;;;;;13.00;74.40;;;;;;6307022;22;19903;-68
2023/07/02 12:04:07;;;;;;;;;;;13.00;74.30;;;;;;6306476;22;19978;-68
2023/07/02 12:06:34;;;;;;;;;;;13.00;74.20;;;;;;6280058;22;19903;-67
2023/07/02 12:09:01;;;;;;;;;;;13.00;74.40;;;;;;6306424;22;19962;-68
2023/07/02 12:11:27;;;;;;;;;;;13.00;74.50;;;;;;6306496;22;19946;-68
2023/07/02 12:13:54;;;;;;;;;;;13.00;74.00;;;;;;6305352;22;19903;-67
2023/07/02 12:16:21;;;;;;;;;;;13.00;74.10;;;;;;6306685;22;19978;-68
2023/07/02 12:18:48;;;;;;;;;;;13.00;74.00;;;;;;6306986;22;19910;-67
2023/07/02 12:21:18;;;;;;;;;;;13.00;73.90;;;;;;6306646;22;19918;-68
2023/07/02 12:23:44;;;;;;;;;;;13.00;74.00;;;;;;6305841;22;20306;-67
2023/07/02 12:26:11;;;;;;;;;;;12.90;74.10;;;;;;6306506;22;19910;-67
2023/07/02 12:28:38;;;;;;;;;;;12.90;73.90;;;;;;6306632;22;19925;-67
2023/07/02 12:31:04;;;;;;;;;;;12.90;73.80;;;;;;6306323;22;19918;-68
2023/07/02 12:33:31;;;;;;;;;;;12.90;73.90;;;;;;6305688;22;20229;-68
2023/07/02 12:35:59;;;;;;;;;;;12.80;74.10;;;;;;6306564;22;19903;-67
2023/07/02 12:38:26;;;;;;;;;;;12.90;74.40;;;;;;6306508;22;20329;-67
2023/07/02 12:40:52;;;;;;;;;;;12.90;74.20;;;;;;6306596;22;19907;-67
2023/07/02 12:43:19;;;;;;;;;;;12.80;74.10;;;;;;6306165;22;19906;-68
2023/07/02 12:45:46;;;;;;;;;;;12.80;74.40;;;;;;6306440;22;19914;-67
2023/07/02 12:48:13;;;;;;;;;;;12.80;74.20;;;;;;6304875;22;19907;-68
2023/07/02 12:50:40;;;;;;;;;;;12.80;74.40;;;;;;6306417;22;20241;-67
2023/07/02 12:53:06;;;;;;;;;;;12.80;74.20;;;;;;6306901;22;19903;-68
2023/07/02 12:55:33;;;;;;;;;;;12.80;74.30;;;;;;6306555;22;19903;-67
2023/07/02 12:58:00;;;;;;;;;;;12.80;74.40;;;;;;6306173;22;19907;-67
2023/07/02 13:00:27;;;;;;;;;;;12.80;74.40;;;;;;6306217;22;19982;-68
2023/07/02 13:02:53;;;;;;;;;;;12.80;74.70;;;;;;6306213;22;19938;-67
2023/07/02 13:05:20;;;;;;;;;;;12.80;74.70;;;;;;6306129;22;19969;-67
2023/07/02 13:07:47;;;;;;;;;;;12.80;74.80;;;;;;6305759;22;19903;-68
2023/07/02 13:10:13;;;;;;;;;;;12.80;74.80;;;;;;6306124;22;20265;-68
2023/07/02 13:12:40;;;;;;;;;;;12.80;74.90;;;;;;6306697;22;19915;-67
2023/07/02 13:15:07;;;;;;;;;;;12.80;75.10;;;;;;6306666;22;19907;-68
2023/07/02 13:17:34;;;;;;;;;;;12.70;74.90;;;;;;6305653;22;19902;-67
2023/07/02 13:20:00;;;;;;;;;;;12.80;74.80;;;;;;6306319;22;19991;-68
2023/07/02 13:22:27;;;;;;;;;;;12.70;75.10;;;;;;6305958;22;19985;-68
2023/07/02 13:24:54;;;;;;;;;;;12.70;75.20;;;;;;6306669;22;20000;-68
2023/07/02 13:27:20;;;;;;;;;;;12.70;75.20;;;;;;6306319;22;19949;-68
2023/07/02 13:29:47;;;;;;;;;;;12.70;75.30;;;;;;6306670;22;19903;-68
2023/07/02 13:32:14;;;;;;;;;;;12.70;75.30;;;;;;6308115;22;19968;-67
2023/07/02 13:34:41;;;;;;;;;;;12.70;75.70;;;;;;6308465;22;19941;-67
2023/07/02 13:37:08;;;;;;;;;;;12.70;75.30;;;;;;6307612;22;19903;-67
2023/07/02 13:39:35;;;;;;;;;;;12.70;75.30;;;;;;6307954;22;20318;-68
2023/07/02 13:42:02;;;;;;;;;;;12.70;75.20;;;;;;6307240;22;19918;-68
2023/07/02 13:44:28;;;;;;;;;;;12.70;75.00;;;;;;6307877;22;19903;-68
2023/07/02 13:46:55;;;;;;;;;;;12.70;75.00;;;;;;6307768;22;19982;-68
2023/07/02 13:49:22;;;;;;;;;;;12.70;75.60;;;;;;6308098;22;20381;-67
2023/07/02 13:51:50;;;;;;;;;;;12.60;76.10;;;;;;6308444;22;20211;-68
2023/07/02 13:54:18;;;;;;;;;;;12.50;76.20;;;;;;6307997;22;20333;-67
2023/07/02 13:56:45;;;;;;;;;;;12.40;76.50;;;;;;6307687;22;19910;-67
2023/07/02 13:59:12;;;;;;;;;;;12.40;76.60;;;;;;6307870;22;19903;-67
2023/07/02 14:01:39;;;;;;;;;;;12.40;76.70;;;;;;6307941;22;20207;-68
2023/07/02 14:04:05;;;;;;;;;;;12.40;77.00;;;;;;6308015;22;19907;-68
2023/07/02 14:06:32;;;;;;;;;;;12.40;76.70;;;;;;6307159;22;19910;-67
2023/07/02 14:08:59;;;;;;;;;;;12.50;76.70;;;;;;6308124;22;19914;-67
2023/07/02 14:11:27;;;;;;;;;;;12.50;76.40;;;;;;6307872;22;19915;-67
2023/07/02 14:13:54;;;;;;;;;;;12.50;76.10;;;;;;6307321;22;20260;-67
2023/07/02 14:16:21;;;;;;;;;;;12.50;76.20;;;;;;6280069;22;20245;-67
2023/07/02 14:18:48;;;;;;;;;;;12.50;76.30;;;;;;6307460;22;19977;-68
2023/07/02 14:21:15;;;;;;;;;;;12.50;76.20;;;;;;6308182;22;19911;-67
2023/07/02 14:23:42;;;;;;;;;;;12.60;76.00;;;;;;6307873;22;20281;-67
2023/07/02 14:26:08;;;;;;;;;;;12.60;76.10;;;;;;6307304;22;19907;-67
2023/07/02 14:28:35;;;;;;;;;;;12.60;75.90;;;;;;6307739;22;19903;-68
2023/07/02 14:31:02;;;;;;;;;;;12.60;76.00;;;;;;6307265;22;19911;-67
2023/07/02 14:33:30;;;;;;;;;;;12.60;75.80;;;;;;6306899;22;19910;-67
2023/07/02 14:35:57;;;;;;;;;;;12.60;75.50;;;;;;6306874;22;19960;-67
2023/07/02 14:38:23;;;;;;;;;;;12.60;75.40;;;;;;6307465;22;20293;-67
2023/07/02 14:40:50;;;;;;;;;;;12.50;75.20;;;;;;6307763;22;19907;-67
2023/07/02 14:43:17;;;;;;;;;;;12.50;75.20;;;;;;6307864;22;19903;-67
2023/07/02 14:45:45;;;;;;;;;;;12.50;75.30;;;;;;6307721;22;19902;-68
2023/07/02 14:48:12;;;;;;;;;;;12.50;75.40;;;;;;6306884;22;20340;-68
2023/07/02 14:50:44;;;;;;;;;;;12.50;75.20;;;;;;6307033;22;19907;-67
2023/07/02 14:53:11;;;;;;;;;;;12.50;75.10;;;;;;6307258;22;19925;-67
2023/07/02 14:55:37;;;;;;;;;;;12.50;75.00;;;;;;6307141;22;19903;-68
2023/07/02 14:58:04;;;;;;;;;;;12.50;75.20;;;;;;6306851;22;19913;-68
2023/07/02 15:00:32;;;;;;;;;;;12.50;75.00;;;;;;6306716;22;19929;-68
2023/07/02 15:02:58;;;;;;;;;;;12.50;74.80;;;;;;6307335;22;19938;-68
2023/07/02 15:05:25;;;;;;;;;;;12.50;74.80;;;;;;6307525;22;19964;-67
2023/07/02 15:07:52;;;;;;;;;;;12.50;74.70;;;;;;6306873;22;19911;-67
2023/07/02 15:10:19;;;;;;;;;;;12.50;74.60;;;;;;6306879;22;19903;-67
2023/07/02 15:12:45;;;;;;;;;;;12.50;74.70;;;;;;6306629;22;20379;-67
2023/07/02 15:15:14;;;;;;;;;;;12.50;74.70;;;;;;6306201;22;19987;-68
2023/07/02 15:17:40;;;;;;;;;;;12.50;75.20;;;;;;6306506;22;19914;-67
2023/07/02 15:20:08;;;;;;;;;;;12.50;74.90;;;;;;6306860;22;19915;-67
2023/07/02 15:22:34;;;;;;;;;;;12.40;74.90;;;;;;6306350;22;19903;-68
2023/07/02 15:25:01;;;;;;;;;;;12.40;74.90;;;;;;6307118;22;20297;-67
2023/07/02 15:27:28;;;;;;;;;;;12.40;75.50;;;;;;6306470;22;19910;-68
2023/07/02 15:29:54;;;;;;;;;;;12.40;75.10;;;;;;6307370;22;19907;-67
2023/07/02 15:32:21;;;;;;;;;;;12.40;75.20;;;;;;6306975;22;19922;-67
2023/07/02 15:34:48;;;;;;;;;;;12.40;75.30;;;;;;6307010;22;20318;-67
2023/07/02 15:37:14;;;;;;;;;;;12.30;75.20;;;;;;6306650;22;19903;-67
2023/07/02 15:39:41;;;;;;;;;;;12.40;75.30;;;;;;6306601;22;20371;-68
2023/07/02 15:42:08;;;;;;;;;;;12.30;75.50;;;;;;6306739;22;19903;-67
2023/07/02 15:44:35;;;;;;;;;;;12.30;75.40;;;;;;6307505;22;20032;-68
2023/07/02 15:47:03;;;;;;;;;;;12.30;75.50;;;;;;6306786;22;19903;-67
2023/07/02 15:49:29;;;;;;;;;;;12.30;75.30;;;;;;6306956;22;19934;-68
2023/07/02 15:51:56;;;;;;;;;;;12.40;75.30;;;;;;6306772;22;19990;-67
2023/07/02 15:54:23;;;;;;;;;;;12.30;75.50;;;;;;6306083;22;19982;-68
2023/07/02 15:56:49;;;;;;;;;;;12.30;75.40;;;;;;6306818;22;19907;-67
2023/07/02 15:59:17;;;;;;;;;;;12.30;75.20;;;;;;6306875;22;19919;-67
2023/07/02 16:01:46;;;;;;;;;;;12.30;75.30;;;;;;6307082;22;19907;-67
2023/07/02 16:04:14;;;;;;;;;;;12.40;75.20;;;;;;6306355;22;19918;-67
2023/07/02 16:06:41;;;;;;;;;;;12.30;75.20;;;;;;6306657;22;19914;-67
2023/07/02 16:09:10;;;;;;;;;;;12.30;75.40;;;;;;6306262;22;19903;-67
2023/07/02 16:11:41;;;;;;;;;;;12.30;75.70;;;;;;6306461;22;20214;-68
2023/07/02 16:14:10;;;;;;;;;;;12.30;76.00;;;;;;6306315;22;19903;-67
2023/07/02 16:16:43;;;;;;;;;;;12.30;75.70;;;;;;6306259;22;19903;-67
2023/07/02 16:19:10;;;;;;;;;;;12.20;75.70;;;;;;6306823;22;19915;-67
2023/07/02 16:21:44;;;;;;;;;;;12.30;75.60;;;;;;6306824;22;19903;-67
2023/07/02 16:24:27;;;;;;;;;;;12.30;75.80;;;;;;6305951;22;19913;-67
2023/07/02 16:26:55;;;;;;;;;;;12.30;75.70;;;;;;6306215;22;20383;-67
2023/07/02 16:29:23;;;;;;;;;;;12.20;75.90;;;;;;6306401;22;19903;-67
2023/07/02 16:31:54;;;;;;;;;;;12.20;76.00;;;;;;6279753;22;19911;-68
2023/07/02 16:34:20;;;;;;;;;;;12.20;75.80;;;;;;6306691;22;20265;-67
2023/07/02 16:36:47;;;;;;;;;;;12.20;75.50;;;;;;6306841;22;19915;-67
2023/07/02 16:39:14;;;;;;;;;;;12.20;75.40;;;;;;6306217;22;20322;-68
2023/07/02 16:41:47;;;;;;;;;;;12.20;75.70;;;;;;6306941;22;19907;-68
2023/07/02 16:44:15;;;;;;;;;;;12.10;75.70;;;;;;6307043;22;19906;-67
2023/07/02 16:46:42;;;;;;;;;;;12.10;75.70;;;;;;6306817;22;19907;-67
2023/07/02 16:49:09;;;;;;;;;;;12.10;75.90;;;;;;6306568;22;19918;-67
2023/07/02 16:51:39;;;;;;;;;;;12.10;76.40;;;;;;6305975;22;19915;-68
2023/07/02 16:54:08;;;;;;;;;;;12.00;76.30;;;;;;6307181;22;19929;-67
2023/07/02 21:13:14;;;;;;;;;;;11.30;79.60;;;;;;6303796;22;20352;-67
2023/07/02 21:15:40;;;;;;;;;;;11.30;79.70;;;;;;6307972;22;20313;-67
2023/07/02 21:18:07;;;;;;;;;;;11.30;79.80;;;;;;6308371;22;19934;-67
2023/07/02 21:20:34;;;;;;;;;;;11.30;79.80;;;;;;6307903;22;19941;-67
2023/07/02 21:23:00;;;;;;;;;;;11.40;79.90;;;;;;6307020;22;19937;-67
2023/07/02 21:25:27;;;;;;;;;;;11.40;80.00;;;;;;6307749;22;19945;-67
2023/07/02 21:27:54;;;;;;;;;;;11.40;80.10;;;;;;6308290;22;19987;-67
2023/07/02 21:30:23;;;;;;;;;;;11.40;80.10;;;;;;6307700;22;19998;-67
2023/07/02 21:32:49;;;;;;;;;;;11.50;80.40;;;;;;6307629;22;20001;-67
2023/07/02 21:35:16;;;;;;;;;;;11.50;80.20;;;;;;6306729;22;19986;-67
2023/07/02 21:37:43;;;;;;;;;;;11.50;80.20;;;;;;6307337;22;19910;-68
2023/07/02 21:40:10;;;;;;;;;;;11.50;80.10;;;;;;6307417;22;19911;-67
2023/07/02 21:42:36;;;;;;;;;;;11.60;80.00;;;;;;6308105;22;19903;-67
2023/07/02 21:45:03;;;;;;;;;;;11.60;79.90;;;;;;6307952;22;19918;-67
2023/07/02 21:47:30;;;;;;;;;;;11.60;79.90;;;;;;6306889;22;19907;-67
2023/07/02 21:49:57;;;;;;;;;;;11.60;79.80;;;;;;6307888;22;19903;-66
2023/07/02 21:52:23;;;;;;;;;;;11.70;79.80;;;;;;6307408;22;19915;-67
2023/07/02 21:54:50;;;;;;;;;;;11.70;79.70;;;;;;6307952;22;20471;-67
2023/07/02 21:57:17;;;;;;;;;;;11.70;79.40;;;;;;6307189;22;19913;-67
2023/07/02 21:59:43;;;;;;;;;;;11.70;79.20;;;;;;6306190;22;20398;-67
2023/07/02 22:02:10;;;;;;;;;;;11.70;79.10;;;;;;6281081;22;19988;-66
2023/07/02 22:04:37;;;;;;;;;;;11.70;79.10;;;;;;6307300;22;19903;-66
2023/07/02 22:07:04;;;;;;;;;;;11.70;79.20;;;;;;6306973;22;19981;-66
2023/07/02 22:09:31;;;;;;;;;;;11.70;78.70;;;;;;6306876;22;19903;-67
2023/07/02 22:11:58;;;;;;;;;;;11.70;78.90;;;;;;6305886;22;19911;-67
2023/07/02 22:14:25;;;;;;;;;;;11.70;78.80;;;;;;6306681;22;19919;-67
2023/07/02 22:16:51;;;;;;;;;;;11.70;78.70;;;;;;6307140;22;19903;-67
2023/07/02 22:19:19;;;;;;;;;;;11.70;78.90;;;;;;6306386;22;19903;-67
2023/07/02 22:21:46;;;;;;;;;;;11.70;78.70;;;;;;6306891;22;20229;-68
2023/07/02 22:24:13;;;;;;;;;;;11.70;78.60;;;;;;6307024;22;19903;-67
2023/07/02 22:26:39;;;;;;;;;;;11.70;78.30;;;;;;6307900;22;20313;-67
2023/07/02 22:29:06;;;;;;;;;;;11.70;78.30;;;;;;6307364;22;19930;-67
2023/07/02 22:31:33;;;;;;;;;;;11.80;78.20;;;;;;6307535;22;19918;-67
2023/07/02 22:34:00;;;;;;;;;;;11.80;78.10;;;;;;6279840;22;20240;-67
2023/07/02 22:36:26;;;;;;;;;;;11.70;78.10;;;;;;6307223;22;19905;-67
2023/07/02 22:38:53;;;;;;;;;;;11.70;78.00;;;;;;6307041;22;20310;-67
2023/07/02 22:41:20;;;;;;;;;;;11.80;78.10;;;;;;6307011;22;19990;-67
2023/07/02 22:43:46;;;;;;;;;;;11.80;78.20;;;;;;6307550;22;19909;-67
2023/07/02 22:46:14;;;;;;;;;;;11.80;78.10;;;;;;6307474;22;19903;-68
2023/07/02 22:48:40;;;;;;;;;;;11.90;78.00;;;;;;6307540;22;19911;-68
2023/07/02 22:51:08;;;;;;;;;;;11.90;78.20;;;;;;6307479;22;20444;-68
2023/07/02 22:53:34;;;;;;;;;;;11.90;78.10;;;;;;6307196;22;19903;-67
2023/07/02 22:56:11;;;;;;;;;;;12.00;78.10;;;;;;6307698;22;19906;-67
2023/07/02 22:58:37;;;;;;;;;;;12.00;78.00;;;;;;6307251;22;20218;-67
2023/07/02 23:01:06;;;;;;;;;;;12.00;77.80;;;;;;6307484;22;19945;-68
2023/07/02 23:03:33;;;;;;;;;;;12.10;77.90;;;;;;6307055;22;19973;-68
2023/07/02 23:06:00;;;;;;;;;;;12.10;78.00;;;;;;6307797;22;19959;-68
2023/07/02 23:08:27;;;;;;;;;;;12.20;78.00;;;;;;6307343;22;19907;-68
